Time;durP1;ratioP1;P1;durP2;ratioP2;P2;SDS_P1;SDS_P2;PMS_P1;PMS_P2;Temp;Humidity;BMP_temperature;BMP_pressure;BME280_temperature;BME280_humidity;BME280_pressure;Samples;Min_cycle;Max_cycle;Signal;HPM_P1;HPM_P2
2022/12/17 13:06:48;;;;;;;3.28;2.40;;;13.20;68.80;;;;;;4974739;28;19924;-15
2022/12/17 13:09:24;;;;;;;5.15;2.53;;;13.40;69.80;;;;;;4972478;28;20038;-15
2022/12/17 13:11:58;;;;;;;5.13;3.00;;;13.60;68.70;;;;;;4973999;28;20387;-12
2022/12/17 13:14:27;;;;;;;3.03;2.35;;;13.40;66.40;;;;;;4973890;28;20035;-14
2022/12/17 13:17:14;;;;;;;2.58;2.20;;;13.00;67.90;;;;;;4973790;28;20094;-15
2022/12/17 13:20:00;;;;;;;3.22;2.38;;;12.80;68.60;;;;;;4973877;28;20122;-16
2022/12/17 13:22:28;;;;;;;3.03;2.40;;;12.50;68.30;;;;;;4973718;28;20031;-16
2022/12/17 13:25:30;;;;;;;4.65;2.70;;;12.30;69.30;;;;;;4973698;28;20430;-15
2022/12/17 13:27:56;;;;;;;6.40;2.50;;;12.00;69.40;;;;;;4914182;29;20024;-16
2022/12/17 13:30:34;;;;;;;2.97;2.20;;;11.90;70.60;;;;;;4914334;29;20087;-14
2022/12/17 13:33:06;;;;;;;2.78;2.30;;;11.70;68.40;;;;;;4914124;29;20480;-16
2022/12/17 13:35:46;;;;;;;3.72;2.20;;;11.50;69.40;;;;;;4914531;29;20070;-15
2022/12/17 13:38:30;;;;;;;2.35;2.10;;;11.30;69.10;;;;;;4914228;29;20032;-14
2022/12/17 13:41:14;;;;;;;2.88;2.10;;;11.10;70.10;;;;;;4914061;29;20069;-16
2022/12/17 13:43:57;;;;;;;2.70;2.03;;;11.10;70.70;;;;;;4914456;29;20468;-14
2022/12/17 13:46:26;;;;;;;2.75;2.20;;;11.10;71.20;;;;;;4914223;29;20031;-16
2022/12/17 13:49:01;;;;;;;2.70;2.20;;;11.10;72.10;;;;;;4914578;29;20052;-14
2022/12/17 13:51:33;;;;;;;2.53;2.08;;;11.20;71.30;;;;;;4914354;29;20024;-15
2022/12/17 13:54:02;;;;;;;4.68;2.90;;;11.20;72.40;;;;;;4913896;29;20044;-15
2022/12/17 13:56:31;;;;;;;4.18;2.83;;;11.30;72.60;;;;;;4914179;29;20047;-14
2022/12/17 13:59:01;;;;;;;3.85;2.97;;;11.40;71.90;;;;;;4914360;29;20025;-16
2022/12/17 14:01:27;;;;;;;3.83;2.22;;;11.30;71.90;;;;;;4932806;28;20060;-11
2022/12/17 14:03:56;;;;;;;3.53;2.47;;;11.30;70.70;;;;;;4973190;28;20027;-12
2022/12/17 14:06:25;;;;;;;3.33;2.30;;;11.30;71.00;;;;;;4973675;28;20054;-12
2022/12/17 14:08:53;;;;;;;3.28;2.53;;;11.20;71.00;;;;;;4972018;28;20031;-15
2022/12/17 14:14:24;;;;;;;2.42;2.00;;;11.10;71.00;;;;;;4976544;28;20038;-10
2022/12/17 14:16:49;;;;;;;2.92;2.30;;;11.00;70.20;;;;;;4976888;28;20486;-16
2022/12/17 14:19:15;;;;;;;3.63;2.60;;;11.00;69.90;;;;;;4977247;28;20023;-16
2022/12/17 14:21:41;;;;;;;5.10;2.40;;;10.90;69.80;;;;;;4977126;28;20031;-16
2022/12/17 14:24:12;;;;;;;3.38;2.30;;;10.90;69.90;;;;;;4975539;28;20031;-14
2022/12/17 14:26:49;;;;;;;3.70;2.40;;;10.90;70.30;;;;;;4977070;28;20023;-16
2022/12/17 14:29:22;;;;;;;3.25;2.10;;;10.90;69.60;;;;;;4976883;28;20503;-14
2022/12/17 14:31:57;;;;;;;2.23;1.90;;;11.00;68.80;;;;;;4976770;28;20042;-15
2022/12/17 14:34:24;;;;;;;1.95;1.70;;;10.80;67.70;;;;;;4976962;28;20032;-15
2022/12/17 14:36:55;;;;;;;4.13;1.90;;;10.60;68.40;;;;;;4976382;28;20113;-13
2022/12/17 14:39:31;;;;;;;2.95;1.92;;;10.50;69.80;;;;;;4976780;28;20057;-11
2022/12/17 14:42:31;;;;;;;3.35;2.28;;;10.50;69.20;;;;;;4976475;28;20024;-14
2022/12/17 14:45:05;;;;;;;3.85;2.85;;;10.30;68.80;;;;;;4976236;28;20109;-15
2022/12/17 14:47:34;;;;;;;3.42;2.17;;;10.20;70.30;;;;;;4976473;28;20459;-12
2022/12/17 14:50:11;;;;;;;3.88;2.45;;;10.10;70.60;;;;;;4976576;28;20047;-12
2022/12/17 14:52:39;;;;;;;3.83;2.55;;;10.00;71.10;;;;;;4975005;28;20038;-15
2022/12/17 14:55:26;;;;;;;5.10;2.50;;;9.90;70.80;;;;;;4976004;28;20170;-15
2022/12/17 14:58:06;;;;;;;8.30;3.42;;;9.90;71.90;;;;;;4976231;28;20497;-16
2022/12/17 15:00:35;;;;;;;8.82;3.60;;;9.90;71.70;;;;;;4976275;28;20033;-14
2022/12/17 15:03:01;;;;;;;6.55;3.40;;;10.10;71.80;;;;;;4976056;28;20034;-16
2022/12/17 15:05:27;;;;;;;5.97;3.10;;;10.00;71.20;;;;;;4975671;28;20050;-16
2022/12/17 15:07:54;;;;;;;4.70;3.00;;;9.90;71.50;;;;;;4974555;28;20085;-15
2022/12/17 15:10:20;;;;;;;3.55;3.08;;;9.80;72.10;;;;;;4975954;28;20041;-15
2022/12/17 15:12:50;;;;;;;5.55;3.35;;;9.60;72.40;;;;;;4976175;28;20026;-16
2022/12/17 15:15:16;;;;;;;8.25;4.00;;;9.50;72.70;;;;;;4976228;28;20101;-14
2022/12/17 15:17:43;;;;;;;5.95;3.92;;;9.30;72.80;;;;;;4974537;28;20495;-16
2022/12/17 15:20:16;;;;;;;5.88;3.67;;;9.10;73.20;;;;;;4976052;28;20039;-14
2022/12/17 15:22:42;;;;;;;8.18;4.10;;;8.90;73.80;;;;;;4975986;28;20463;-15
2022/12/17 15:25:16;;;;;;;6.43;4.25;;;8.80;74.10;;;;;;4975008;28;20034;-15
2022/12/17 15:27:43;;;;;;;7.53;4.45;;;8.70;74.50;;;;;;4975528;28;20037;-16
2022/12/17 15:30:16;;;;;;;7.05;4.65;;;8.60;74.70;;;;;;4975567;28;20391;-16
2022/12/17 15:32:42;;;;;;;6.55;3.90;;;8.50;75.00;;;;;;4976132;28;20105;-15
2022/12/17 15:35:10;;;;;;;8.77;4.60;;;8.40;75.10;;;;;;4975365;28;20038;-16
2022/12/17 15:37:35;;;;;;;6.38;3.95;;;8.30;75.20;;;;;;4975357;28;20031;-14
2022/12/17 15:40:03;;;;;;;8.88;4.85;;;8.20;75.40;;;;;;4975630;28;20029;-16
2022/12/17 15:45:13;;;;;;;6.57;3.83;;;8.10;75.60;;;;;;4975407;28;20579;-15
2022/12/17 15:47:39;;;;;;;6.40;3.90;;;8.00;75.80;;;;;;4975487;28;20042;-17
2022/12/17 15:50:06;;;;;;;6.13;4.10;;;8.00;75.90;;;;;;4975588;28;20506;-15
2022/12/17 15:52:31;;;;;;;6.68;4.05;;;7.90;75.90;;;;;;4975032;28;20034;-17
2022/12/17 15:55:04;;;;;;;6.13;3.58;;;7.90;76.00;;;;;;4973666;28;20030;-15
2022/12/17 15:57:30;;;;;;;10.68;4.60;;;7.90;76.20;;;;;;4975369;28;20483;-17
2022/12/17 15:59:55;;;;;;;7.25;4.10;;;7.90;76.20;;;;;;4975777;28;20051;-16
2022/12/17 16:02:21;;;;;;;6.50;4.20;;;7.90;76.30;;;;;;4975302;28;20019;-16
2022/12/17 16:04:47;;;;;;;8.90;4.57;;;7.90;76.40;;;;;;4975030;28;20097;-20
2022/12/17 16:07:14;;;;;;;8.77;4.72;;;7.90;76.40;;;;;;4975102;28;20045;-17
2022/12/17 16:09:40;;;;;;;9.10;4.93;;;7.90;76.40;;;;;;4974752;28;20030;-16
2022/12/17 16:12:06;;;;;;;8.93;4.95;;;7.90;76.40;;;;;;4975072;28;20034;-16
2022/12/17 16:14:31;;;;;;;8.63;4.63;;;7.90;76.50;;;;;;4974825;28;20545;-15
2022/12/17 16:16:58;;;;;;;8.07;4.93;;;7.90;76.40;;;;;;4974895;28;20113;-16
2022/12/17 16:19:24;;;;;;;6.28;4.28;;;7.90;76.40;;;;;;4974960;28;20029;-16
2022/12/17 16:21:50;;;;;;;7.32;4.35;;;8.00;76.20;;;;;;4974589;28;20122;-15
2022/12/17 16:24:15;;;;;;;7.10;4.47;;;8.00;75.80;;;;;;4974483;28;20026;-15
2022/12/17 16:26:41;;;;;;;7.97;4.40;;;8.00;75.70;;;;;;4974811;28;20114;-16
2022/12/17 16:29:07;;;;;;;8.93;4.57;;;8.00;76.00;;;;;;4974195;28;20058;-17
2022/12/17 16:31:33;;;;;;;8.73;4.60;;;8.00;75.80;;;;;;4974730;28;20035;-16
2022/12/17 16:33:59;;;;;;;7.72;4.38;;;8.00;75.70;;;;;;4974433;28;20080;-15
2022/12/17 16:36:25;;;;;;;9.68;5.35;;;8.10;75.90;;;;;;4973751;28;20033;-16
2022/12/17 16:38:53;;;;;;;10.45;6.03;;;8.10;75.50;;;;;;4972829;28;20027;-16
2022/12/17 16:41:20;;;;;;;14.63;6.30;;;8.10;75.30;;;;;;4974590;28;20033;-16
2022/12/17 16:43:47;;;;;;;9.73;5.22;;;8.10;75.10;;;;;;4973765;28;20378;-16
2022/12/17 16:46:27;;;;;;;7.72;4.07;;;8.10;75.50;;;;;;4974543;28;20023;-16
2022/12/17 16:48:55;;;;;;;8.60;4.10;;;8.10;75.50;;;;;;4974096;28;20114;-15
2022/12/17 16:51:23;;;;;;;9.80;5.68;;;8.10;75.40;;;;;;4974410;28;20041;-16
2022/12/17 16:53:49;;;;;;;7.13;4.65;;;8.20;75.30;;;;;;4974217;28;20367;-16
2022/12/17 16:56:20;;;;;;;6.65;3.80;;;8.10;74.80;;;;;;4974564;28;20034;-16
2022/12/17 16:58:47;;;;;;;8.50;4.32;;;8.20;75.20;;;;;;4974255;28;20474;-14
2022/12/17 17:01:21;;;;;;;8.02;4.20;;;8.20;75.10;;;;;;4974595;28;20027;-17
2022/12/17 17:03:47;;;;;;;7.63;4.20;;;8.20;75.00;;;;;;4974361;28;20237;-16
2022/12/17 17:06:14;;;;;;;7.90;4.80;;;8.20;75.10;;;;;;4973774;28;20055;-16
2022/12/17 17:08:39;;;;;;;7.93;4.78;;;8.20;74.80;;;;;;4973729;28;20035;-15
2022/12/17 17:11:15;;;;;;;7.15;4.40;;;8.20;74.80;;;;;;4972483;28;20038;-16
2022/12/17 17:13:41;;;;;;;7.15;4.30;;;8.20;74.90;;;;;;4974283;28;20109;-16
2022/12/17 17:16:08;;;;;;;9.55;5.80;;;8.20;74.90;;;;;;4974160;28;20042;-17
2022/12/17 17:18:36;;;;;;;10.55;5.97;;;8.10;75.20;;;;;;4972683;28;20143;-16
2022/12/17 17:21:18;;;;;;;12.60;6.60;;;8.20;75.00;;;;;;4973876;28;20043;-16
2022/12/17 17:23:45;;;;;;;14.63;7.50;;;8.10;75.10;;;;;;4973758;28;20030;-17
2022/12/17 17:26:11;;;;;;;10.48;5.97;;;8.10;75.10;;;;;;4974069;28;20109;-17
2022/12/17 17:28:38;;;;;;;9.60;5.57;;;8.10;75.20;;;;;;4974394;28;20475;-15
2022/12/17 17:31:07;;;;;;;11.88;5.97;;;8.10;75.30;;;;;;4973480;28;20031;-16
2022/12/17 17:33:38;;;;;;;14.18;5.68;;;8.10;75.30;;;;;;4973894;28;20109;-15
2022/12/17 17:36:09;;;;;;;8.38;5.43;;;8.10;74.90;;;;;;4973700;28;20501;-16
2022/12/17 17:38:38;;;;;;;9.98;5.78;;;8.00;75.30;;;;;;4973594;28;20022;-15
2022/12/17 17:41:06;;;;;;;9.50;6.13;;;8.00;75.40;;;;;;4973090;28;20034;-15
2022/12/17 17:43:32;;;;;;;8.82;5.47;;;8.00;75.50;;;;;;4973625;28;20023;-16
2022/12/17 17:46:08;;;;;;;8.35;5.10;;;8.00;75.40;;;;;;4973896;28;20101;-15
2022/12/17 17:48:34;;;;;;;9.98;5.20;;;7.90;75.30;;;;;;4977184;28;20035;-16
2022/12/17 17:51:07;;;;;;;8.23;5.03;;;7.90;75.30;;;;;;4977427;28;20023;-17
2022/12/17 17:53:33;;;;;;;10.50;5.55;;;7.90;75.20;;;;;;4977344;28;20360;-16
2022/12/17 17:56:13;;;;;;;10.30;4.80;;;7.90;75.00;;;;;;4977374;28;20035;-15
2022/12/17 17:59:02;;;;;;;8.45;4.60;;;7.80;74.80;;;;;;4977305;28;20072;-15
2022/12/17 18:01:32;;;;;;;9.38;5.03;;;7.70;74.90;;;;;;4977276;28;20027;-15
2022/12/17 18:04:03;;;;;;;8.90;5.28;;;7.60;74.40;;;;;;4976999;28;20133;-15
2022/12/17 18:06:29;;;;;;;10.60;5.30;;;7.50;75.00;;;;;;4977202;28;20031;-14
2022/12/17 18:08:56;;;;;;;16.85;7.28;;;7.50;75.40;;;;;;4976820;28;20038;-14
2022/12/17 18:11:24;;;;;;;13.68;8.48;;;7.40;75.30;;;;;;4977061;28;20102;-12
2022/12/17 18:13:56;;;;;;;10.88;6.57;;;7.30;75.30;;;;;;4977197;28;20513;-11
2022/12/17 18:16:31;;;;;;;11.35;6.55;;;7.20;75.50;;;;;;4977259;28;20030;-11
2022/12/17 18:19:18;;;;;;;11.60;6.47;;;7.10;75.50;;;;;;4976810;28;20463;-13
2022/12/17 18:21:45;;;;;;;10.68;6.20;;;7.00;75.90;;;;;;4977216;28;20031;-15
2022/12/17 18:24:20;;;;;;;10.77;6.10;;;7.00;76.00;;;;;;4977244;28;20038;-15
2022/12/17 18:26:46;;;;;;;10.13;5.88;;;6.90;75.60;;;;;;4977027;28;20038;-14
2022/12/17 18:29:19;;;;;;;10.70;6.18;;;6.90;76.00;;;;;;4976517;28;20038;-15
2022/12/17 18:31:46;;;;;;;9.82;6.00;;;6.90;75.90;;;;;;4977115;28;20027;-13
2022/12/17 18:34:13;;;;;;;10.13;6.30;;;6.80;76.00;;;;;;4976705;28;20030;-12
2022/12/17 18:36:42;;;;;;;11.65;6.20;;;6.70;76.10;;;;;;4976722;28;20038;-17
2022/12/17 18:39:12;;;;;;;8.95;5.65;;;6.60;75.70;;;;;;4976328;28;20061;-14
2022/12/17 18:44:24;;;;;;;10.25;6.00;;;6.60;76.00;;;;;;4976955;28;20542;-15
2022/12/17 18:46:50;;;;;;;8.75;5.57;;;6.40;76.00;;;;;;4976450;28;20081;-16
2022/12/17 18:49:18;;;;;;;10.95;5.72;;;6.40;76.10;;;;;;4976439;28;20059;-16
2022/12/17 18:51:46;;;;;;;8.60;5.55;;;6.30;75.80;;;;;;4975102;28;20062;-16
2022/12/17 18:54:18;;;;;;;9.18;6.10;;;6.30;76.10;;;;;;4976273;28;20031;-16
2022/12/17 18:56:44;;;;;;;9.98;5.45;;;6.10;76.10;;;;;;4976233;28;20065;-15
2022/12/17 18:59:15;;;;;;;8.40;5.07;;;6.10;76.30;;;;;;4975254;28;20038;-17
2022/12/17 19:01:42;;;;;;;12.40;6.25;;;6.00;76.50;;;;;;4976129;28;20046;-15
2022/12/17 19:04:11;;;;;;;8.43;5.07;;;5.90;76.60;;;;;;4976065;28;20031;-13
2022/12/17 19:06:38;;;;;;;8.02;5.18;;;5.90;76.70;;;;;;4976145;28;20031;-15
2022/12/17 19:09:06;;;;;;;6.28;4.25;;;5.80;76.50;;;;;;4975603;28;20023;-16
2022/12/17 19:11:34;;;;;;;7.70;4.75;;;5.70;76.60;;;;;;4977041;28;20046;-17
2022/12/17 19:14:00;;;;;;;10.00;5.70;;;5.60;76.60;;;;;;4976179;28;20038;-16
2022/12/17 19:16:28;;;;;;;14.90;8.20;;;5.50;76.80;;;;;;4975855;28;20117;-16
2022/12/17 19:18:57;;;;;;;9.95;6.32;;;5.50;76.80;;;;;;4975868;28;20034;-16
2022/12/17 19:21:23;;;;;;;9.80;5.32;;;5.40;76.90;;;;;;4976208;28;20074;-17
2022/12/17 19:23:55;;;;;;;12.13;7.53;;;5.40;76.90;;;;;;4975737;28;20026;-16
2022/12/17 19:26:22;;;;;;;9.48;6.20;;;5.30;76.80;;;;;;4975728;28;20034;-12
2022/12/17 19:28:51;;;;;;;9.45;5.30;;;5.30;76.70;;;;;;4975404;28;20031;-14
2022/12/17 19:31:18;;;;;;;8.68;4.68;;;5.30;76.80;;;;;;4974334;28;20073;-16
2022/12/17 19:33:44;;;;;;;8.13;5.03;;;5.20;76.80;;;;;;4975892;28;20031;-16
2022/12/17 19:36:16;;;;;;;8.77;5.40;;;5.20;76.70;;;;;;4975645;28;20034;-15
2022/12/17 19:38:42;;;;;;;7.97;5.00;;;5.10;76.80;;;;;;4975719;28;20026;-16
2022/12/17 19:41:14;;;;;;;9.48;5.15;;;5.10;76.90;;;;;;4975265;28;20037;-13
2022/12/17 19:43:41;;;;;;;7.18;4.95;;;5.00;76.80;;;;;;4975787;28;20499;-16
2022/12/17 19:46:10;;;;;;;6.38;4.45;;;5.00;76.80;;;;;;4975717;28;20038;-16
2022/12/17 19:48:38;;;;;;;8.98;5.20;;;5.00;77.00;;;;;;4974018;28;20034;-16
2022/12/17 19:51:07;;;;;;;9.93;5.43;;;4.90;77.00;;;;;;4975695;28;20058;-16
2022/12/17 19:53:34;;;;;;;8.63;5.40;;;4.90;77.10;;;;;;4975557;28;20025;-15
2022/12/17 19:56:22;;;;;;;8.38;5.45;;;4.80;77.00;;;;;;4975409;28;20045;-16
2022/12/17 19:58:54;;;;;;;8.07;5.05;;;4.80;77.20;;;;;;4974945;28;20078;-15
2022/12/17 20:01:32;;;;;;;9.35;5.00;;;4.80;77.30;;;;;;4974974;28;20038;-14
2022/12/17 20:03:59;;;;;;;8.38;4.93;;;4.80;77.30;;;;;;4975016;28;20049;-14
2022/12/17 20:06:30;;;;;;;9.27;4.97;;;4.80;77.40;;;;;;4975534;28;20467;-13
2022/12/17 20:09:00;;;;;;;9.32;5.57;;;4.70;77.40;;;;;;4974776;28;20085;-16
2022/12/17 20:11:33;;;;;;;9.57;5.50;;;4.70;77.40;;;;;;4974850;28;20034;-16
2022/12/17 20:14:05;;;;;;;12.45;5.70;;;4.70;77.50;;;;;;4974903;28;20023;-12
2022/12/17 20:16:35;;;;;;;13.55;7.53;;;4.70;77.60;;;;;;4975339;28;20096;-15
2022/12/17 20:19:03;;;;;;;13.13;7.72;;;4.60;77.50;;;;;;4974524;28;20391;-15
2022/12/17 20:21:29;;;;;;;13.90;8.75;;;4.60;77.50;;;;;;4974789;28;20034;-12
2022/12/17 20:23:55;;;;;;;14.32;8.75;;;4.60;77.60;;;;;;4974570;28;20030;-16
2022/12/17 20:26:21;;;;;;;12.90;7.43;;;4.60;77.50;;;;;;4974627;28;20030;-10
2022/12/17 20:28:47;;;;;;;14.60;7.20;;;4.60;77.50;;;;;;4974451;28;20034;-14
2022/12/17 20:31:13;;;;;;;14.40;7.60;;;4.60;77.40;;;;;;4974894;28;20106;-13
2022/12/17 20:33:39;;;;;;;12.02;6.65;;;4.60;77.30;;;;;;4974768;28;20343;-16
2022/12/17 20:36:06;;;;;;;11.55;6.65;;;4.60;77.20;;;;;;4974458;28;20110;-16
2022/12/17 20:38:33;;;;;;;12.32;7.30;;;4.60;77.20;;;;;;4974341;28;20031;-15
2022/12/17 20:40:59;;;;;;;13.77;7.13;;;4.60;77.20;;;;;;4974156;28;20027;-16
2022/12/17 20:43:26;;;;;;;16.60;9.32;;;4.60;77.10;;;;;;4974434;28;20367;-16
2022/12/17 20:45:56;;;;;;;17.77;9.02;;;4.60;77.20;;;;;;4974233;28;20459;-16
2022/12/17 20:48:23;;;;;;;17.38;8.80;;;4.60;77.20;;;;;;4974312;28;20031;-15
2022/12/17 20:50:50;;;;;;;14.23;8.13;;;4.60;77.00;;;;;;4973954;28;20063;-16
2022/12/17 20:53:16;;;;;;;14.10;8.05;;;4.60;76.90;;;;;;4974513;28;20042;-17
2022/12/17 20:55:42;;;;;;;15.65;8.25;;;4.60;77.00;;;;;;4974432;28;20027;-16
2022/12/17 20:58:08;;;;;;;12.23;6.93;;;4.60;77.00;;;;;;4974029;28;20375;-17
2022/12/17 21:00:34;;;;;;;12.95;7.03;;;4.60;77.00;;;;;;4974665;28;20019;-15
2022/12/17 21:03:00;;;;;;;11.25;6.53;;;4.60;76.90;;;;;;4973864;28;20035;-17
2022/12/17 21:05:26;;;;;;;13.15;6.43;;;4.60;76.80;;;;;;4973875;28;20058;-16
2022/12/17 21:07:52;;;;;;;10.50;6.47;;;4.60;76.60;;;;;;4973803;28;20042;-16
2022/12/17 21:10:18;;;;;;;10.27;5.80;;;4.60;76.40;;;;;;4974071;28;20027;-15
2022/12/17 21:15:29;;;;;;;10.23;6.13;;;4.70;76.50;;;;;;4974353;28;20041;-16
2022/12/17 21:17:55;;;;;;;11.93;6.22;;;4.70;76.40;;;;;;4974489;28;20022;-16
2022/12/17 21:20:21;;;;;;;13.52;7.30;;;4.70;76.60;;;;;;4974089;28;20058;-16
2022/12/17 21:22:47;;;;;;;12.52;7.00;;;4.70;76.40;;;;;;4973663;28;20049;-17
2022/12/17 21:25:13;;;;;;;13.43;7.60;;;4.70;76.40;;;;;;4973822;28;20471;-17
2022/12/17 21:27:39;;;;;;;13.02;7.32;;;4.70;76.50;;;;;;4972387;28;20093;-17
2022/12/17 21:30:05;;;;;;;12.32;7.03;;;4.80;76.60;;;;;;4974379;28;20487;-16
2022/12/17 21:32:31;;;;;;;10.82;6.47;;;4.80;76.60;;;;;;4973792;28;20383;-17
2022/12/17 21:34:57;;;;;;;9.73;6.28;;;4.80;76.50;;;;;;4973575;28;20023;-16
2022/12/17 21:37:23;;;;;;;12.23;7.50;;;4.80;76.70;;;;;;4973983;28;20023;-16
2022/12/17 21:39:49;;;;;;;11.10;6.93;;;4.80;76.50;;;;;;4973751;28;20595;-15
2022/12/17 21:44:59;;;;;;;;;;;4.90;76.50;;;;;;4973948;28;20158;-15
2022/12/17 21:47:25;;;;;;;9.10;6.32;;;4.90;76.00;;;;;;4974091;28;19914;-16
2022/12/17 21:49:51;;;;;;;11.65;7.20;;;5.00;76.00;;;;;;4973494;28;20045;-18
2022/12/17 21:52:17;;;;;;;11.55;6.47;;;5.00;75.60;;;;;;4973904;28;20027;-17
2022/12/17 21:54:43;;;;;;;11.45;6.35;;;5.10;75.80;;;;;;4972116;28;20035;-17
2022/12/17 21:57:09;;;;;;;13.02;7.00;;;5.10;75.60;;;;;;4973445;28;20033;-15
2022/12/17 21:59:35;;;;;;;13.40;7.07;;;5.10;75.20;;;;;;4973428;28;20026;-17
2022/12/17 22:02:01;;;;;;;10.38;6.13;;;5.10;75.70;;;;;;4973477;28;20027;-16
2022/12/17 22:04:27;;;;;;;10.70;6.60;;;5.10;75.60;;;;;;4973648;28;20057;-17
2022/12/17 22:06:53;;;;;;;9.48;6.10;;;5.10;75.60;;;;;;4973192;28;20037;-16
2022/12/17 22:09:20;;;;;;;11.82;6.50;;;5.10;75.10;;;;;;4973358;28;20106;-17
2022/12/17 22:11:46;;;;;;;9.68;6.25;;;5.10;75.30;;;;;;4973381;28;20045;-17
2022/12/17 22:14:12;;;;;;;10.45;6.60;;;5.10;75.30;;;;;;4973443;28;20027;-16
2022/12/17 22:16:47;;;;;;;10.20;6.57;;;5.10;75.10;;;;;;4973483;28;20139;-15
2022/12/17 22:19:18;;;;;;;10.60;6.50;;;5.10;74.90;;;;;;4973461;28;20502;-17
2022/12/17 22:21:45;;;;;;;11.07;6.82;;;5.10;75.40;;;;;;4973671;28;20091;-16
2022/12/17 22:24:16;;;;;;;11.88;6.70;;;5.10;75.40;;;;;;4973549;28;20038;-15
2022/12/17 22:26:43;;;;;;;10.65;6.10;;;5.10;75.30;;;;;;4973418;28;20475;-16
2022/12/17 22:29:09;;;;;;;10.98;6.60;;;5.10;75.50;;;;;;4972973;28;20047;-15
2022/12/17 22:34:19;;;;;;;10.88;6.78;;;5.00;75.40;;;;;;4975241;28;20097;-16
2022/12/17 22:36:45;;;;;;;11.32;6.30;;;5.00;75.50;;;;;;4976667;28;20031;-15
2022/12/17 22:39:13;;;;;;;10.82;6.35;;;4.90;75.50;;;;;;4976297;28;20030;-16
2022/12/17 22:44:25;;;;;;;10.18;6.28;;;4.90;75.80;;;;;;4976579;28;20121;-15
2022/12/17 22:46:51;;;;;;;11.43;6.90;;;4.80;75.90;;;;;;4976354;28;20054;-15
2022/12/17 22:49:18;;;;;;;10.57;6.75;;;4.80;76.10;;;;;;4976746;28;20027;-16
2022/12/17 22:51:45;;;;;;;11.35;7.10;;;4.80;76.20;;;;;;4976468;28;20475;-15
2022/12/17 22:54:12;;;;;;;12.90;7.57;;;4.80;76.20;;;;;;4976163;28;20031;-15
2022/12/17 22:56:40;;;;;;;11.30;7.03;;;4.80;76.30;;;;;;4976811;28;20379;-17
2022/12/17 22:59:07;;;;;;;11.40;6.47;;;4.70;76.10;;;;;;4976188;28;20042;-15
2022/12/17 23:01:33;;;;;;;10.60;6.78;;;4.70;76.10;;;;;;4976114;28;20468;-17
2022/12/17 23:04:01;;;;;;;10.60;6.38;;;4.70;76.00;;;;;;4976001;28;20067;-15
2022/12/17 23:06:27;;;;;;;11.43;6.78;;;4.70;76.10;;;;;;4976597;28;20042;-15
2022/12/17 23:08:53;;;;;;;10.07;6.38;;;4.70;76.20;;;;;;4975727;28;20031;-17
2022/12/17 23:11:24;;;;;;;12.75;6.97;;;4.70;76.30;;;;;;4976004;28;20340;-17
2022/12/17 23:13:52;;;;;;;12.18;7.15;;;4.70;76.20;;;;;;4976333;28;20038;-17
2022/12/17 23:16:18;;;;;;;11.77;7.05;;;4.70;76.30;;;;;;4975952;28;20475;-15
2022/12/17 23:18:45;;;;;;;10.75;6.70;;;4.60;76.30;;;;;;4975876;28;20034;-18
2022/12/17 23:21:12;;;;;;;11.52;6.70;;;4.60;76.30;;;;;;4975977;28;20027;-15
2022/12/17 23:23:38;;;;;;;10.35;6.78;;;4.60;76.30;;;;;;4976062;28;20114;-16
2022/12/17 23:26:14;;;;;;;12.52;7.18;;;4.60;76.50;;;;;;4975955;28;20360;-17
2022/12/17 23:28:40;;;;;;;11.73;6.80;;;4.60;76.50;;;;;;4975705;28;20041;-16
2022/12/17 23:31:13;;;;;;;11.95;7.05;;;4.60;76.60;;;;;;4975526;28;20042;-16
2022/12/17 23:33:40;;;;;;;9.73;6.22;;;4.60;76.60;;;;;;4974906;28;20368;-17
2022/12/17 23:36:09;;;;;;;12.02;7.28;;;4.60;76.60;;;;;;4975628;28;20077;-16
2022/12/17 23:38:35;;;;;;;13.70;6.93;;;4.60;76.50;;;;;;4975480;28;20023;-15
2022/12/17 23:41:06;;;;;;;11.75;6.90;;;4.60;76.30;;;;;;4975296;28;20562;-16
2022/12/17 23:43:32;;;;;;;10.98;6.63;;;4.60;76.20;;;;;;4975520;28;20054;-15
2022/12/17 23:45:58;;;;;;;12.23;6.78;;;4.60;76.30;;;;;;4975646;28;20035;-17
2022/12/17 23:48:27;;;;;;;11.23;6.70;;;4.60;75.80;;;;;;4975734;28;20081;-16
2022/12/17 23:50:53;;;;;;;11.10;6.82;;;4.60;76.00;;;;;;4975128;28;20514;-14
2022/12/17 23:53:19;;;;;;;11.60;7.40;;;4.60;76.30;;;;;;4975042;28;20027;-17
2022/12/17 23:55:45;;;;;;;10.95;6.43;;;4.50;75.80;;;;;;4975383;28;20070;-17
2022/12/17 23:58:11;;;;;;;11.15;7.00;;;4.50;75.80;;;;;;4975278;28;20026;-16
